Selinsgrove, PA (17870)

2:56 AM EST on February 09, 2016 (GMT -0500)
Cardiff Drive | | Change Station
CLOSE
Current Station
Personal Weather Station
Location: Kreamer, PA
Elevation: 531 ft
Nearby Weather Stations

Elev 531 ft 40.80 °N, 76.96 °W | Updated 14 minutes ago

Overcast
Overcast
32.0 °F
Feels Like 32 °F
N
2.2
Wind Variable Wind from ESE

Today
High -- | Low -- °F
--% Chance of Precip.
Yesterday
High -- | Low -- °F
Precip. -- in
Pressure 29.62 in
Visibility 10.0 miles
Clouds Overcast 1500 ft
Windchill 32 °F
Dew Point 32 °F
Humidity 99%
Rainfall 0.00 in
Snow Depth Not available.
7:09 AM 5:34 PM
New Moon, 1% visible
METAR KSEG 090753Z AUTO 13005KT 10SM OVC015 01/M02 A2961 RMK AO2 SNE42 SLP030 P0000 T00061017
Pressure 29.62 in
Visibility 10.0 miles
Clouds Overcast 1500 ft
Windchill 32 °F
Dew Point 32 °F
Humidity 99%
Rainfall 0.00 in
Snow Depth Not available.
7:09 AM 5:34 PM
New Moon, 1% visible
METAR KSEG 090753Z AUTO 13005KT 10SM OVC015 01/M02 A2961 RMK AO2 SNE42 SLP030 P0000 T00061017

10-Day Weather Forecast

Almanac

Astronomy

Feb. 09, 2016 Rise Set
Actual Time
Civil Twilight
Nautical Twilight
Astronomical Twilight
Moon
Length of Visible Light
Length of Day
Tomorrow will be .
, % of the Moon is Illuminated

Today's Extremes

State Highs State Lows

Community

WunderPhotos

Upload Photos

1,891,571 photos uploaded!

WunderBlog® & News

Nearby

Air Quality

  Air Quality AQ Index Pollutant
Not available.

Snow Depth

Station Depth Elevation

Earthquake Activity

City Distance Mag. Time & Date
Minimum magnitude displayed is 2.5.

Coastal Water Temperatures

Place Temperature

Stations

Nearby Weather Stations

Station Location Temp. Windchill Dew Point Humidity Wind Precip. Elev Updated Type
                   

Watches & Warnings

There are currently no watches in effect.